Capitol Logistics 334


KMIA
Miami International Airport
Miami, Florida, US
KCVG
Cincinnati/Northern Kentucky International Airport
Covington, Kentucky, US

Activity Log

Date Flight Route Aircraft Duration
01/14/2020 CPX334 HEDLY2 HEDLY J81 ORL VQQ AMG VXV JAKIE4 B763 2h 47m
10/09/2019 CPX334 HEDLY2 HEDLY J81 ORL VQQ AMG VXV JAKIE4 B763 2h 29m
07/21/2019 CPX334 POTTR6 HEDLY J81 ORL VQQ AMG VXV HARDU3 B763 2h 10m
11/18/2018 CPX310 HITAG2 HEDLY J81 ORL VQQ AMG VXV HARDU4 B752 2h 18m
11/05/2018 CPX310 HEDLY2 HEDLY J81 ORL VQQ AMG VXV JAKIE4 B752 2h 35m

Route Details

Aircraft Information
Primary: Boeing 767-300BDSF
Backup: Not Available
Route Data
Distance: 899nm
Sched. Duration: 2h 10m
Avg. Duration: 2h 28m (+18m)
Times Flown: 5
Recm'd Route: HEDLY2 HEDLY J81 ORL VQQ AMG VXV JAKIE4
Planned Altitude: 34,000ft
Origin Wx: KMIA 281153Z 31008KT 10SM BKN050 11/04 A3023 RMK AO2 SLP237 T01110039 10128 20106 53013
Dest. Wx: KCVG 281152Z 31006KT 9SM FEW120 FEW250 M03/M07 A3000 RMK AO2 SLP166 60005 70005 T10331067 10000 21033 51007
Notes:

Financial History
Total Freight: 310,372lbs
Average Load: 62,074lbs/flt
Fuel Used: 118,239lbs
Avg. Fuel Used: 23,648lbs/flt
Fuel Expense: $148,435
Avg. Fuel Expense: $29,687
Avg. Fuel Cost: $1.25/lbs
Total Gross Income: $408,385
Pilot Pay: $665
Total Expenses: $44,366
Total Revenue: $213,872
Average Revenue: $81,677.03